createdAt,value
2019-04-16T00:02:19.422Z,101188.69
2019-04-16T00:05:13.816Z,101191.05
2019-04-16T00:07:48.223Z,101182.55
2019-04-16T00:10:24.118Z,101184.23
2019-04-16T00:12:57.169Z,101186.45
2019-04-16T00:15:26.166Z,101172.22
2019-04-16T00:17:55.293Z,101174.66
2019-04-16T00:20:24.426Z,101173.23
2019-04-16T00:22:59.458Z,101171.26
2019-04-16T00:25:28.553Z,101173.36
2019-04-16T00:27:59.984Z,101162.02
2019-04-16T00:30:28.596Z,101162.86
2019-04-16T00:32:57.756Z,101160.30
2019-04-16T00:35:26.752Z,101161.89
2019-04-16T00:37:55.781Z,101157.66
2019-04-16T00:40:26.577Z,101161.73
2019-04-16T00:42:56.994Z,101159.13
2019-04-16T00:45:26.066Z,101156.34
2019-04-16T00:47:55.110Z,101155.84
2019-04-16T00:50:24.222Z,101154.37
2019-04-16T00:52:53.291Z,101152.81
2019-04-16T00:55:22.284Z,101147.25
2019-04-16T00:57:51.299Z,101143.86
2019-04-16T01:00:20.327Z,101147.17
2019-04-16T01:02:49.718Z,101151.84
2019-04-16T01:05:18.767Z,101151.19
2019-04-16T01:07:47.871Z,101147.45
2019-04-16T01:10:16.900Z,101143.75
2019-04-16T01:12:45.954Z,101146.22
2019-04-16T01:15:15.020Z,101138.23
2019-04-16T01:17:44.075Z,101139.56
2019-04-16T01:20:13.226Z,101135.46
2019-04-16T01:22:46.596Z,101140.86
2019-04-16T01:25:13.177Z,101130.19
2019-04-16T01:27:46.649Z,101136.27
2019-04-16T01:30:18.837Z,101131.03
2019-04-16T01:33:03.326Z,101130.47
2019-04-16T01:35:52.401Z,101124.67
2019-04-16T01:38:41.412Z,101129.06
2019-04-16T01:41:12.498Z,101120.45
2019-04-16T01:43:41.605Z,101124.27
2019-04-16T01:46:10.847Z,101126.61
2019-04-16T01:48:39.908Z,101118.69
2019-04-16T01:51:08.967Z,101118.16
2019-04-16T01:53:38.053Z,101109.95
2019-04-16T01:56:07.088Z,101111.09
2019-04-16T01:58:36.224Z,101115.69
2019-04-16T02:01:05.230Z,101120.93
2019-04-16T02:03:34.258Z,101107.89
2019-04-16T02:06:03.341Z,101107.69
2019-04-16T02:08:32.350Z,101111.25
2019-04-16T02:11:01.523Z,101113.17
2019-04-16T02:13:30.720Z,101112.88
2019-04-16T02:15:59.948Z,101106.97
2019-04-16T02:18:29.818Z,101104.98
2019-04-16T02:20:59.928Z,101103.74
2019-04-16T02:23:29.043Z,101098.57
2019-04-16T02:25:58.054Z,101094.06
2019-04-16T02:28:28.345Z,101098.21
2019-04-16T02:30:58.141Z,101095.75
2019-04-16T02:33:27.171Z,101091.60
2019-04-16T02:35:56.252Z,101093.44
2019-04-16T02:38:25.264Z,101092.20
2019-04-16T02:40:54.367Z,101091.06
2019-04-16T02:43:23.390Z,101094.52
2019-04-16T02:45:56.809Z,101094.52
2019-04-16T02:48:23.463Z,101086.36
2019-04-16T02:51:05.309Z,101090.45
2019-04-16T02:53:54.548Z,101092.03
2019-04-16T02:56:43.185Z,101088.23
2019-04-16T02:59:16.061Z,101091.47
2019-04-16T03:02:04.678Z,101093.53
2019-04-16T03:04:39.155Z,101090.37
2019-04-16T03:07:08.184Z,101091.09
2019-04-16T03:09:39.999Z,101087.51
2019-04-16T03:12:08.263Z,101083.06
2019-04-16T03:14:37.432Z,101083.48
2019-04-16T03:17:27.749Z,101080.14
2019-04-16T03:19:57.809Z,101077.07
2019-04-16T03:22:26.821Z,101078.56
2019-04-16T03:24:55.881Z,101073.18
2019-04-16T03:27:24.935Z,101077.34
2019-04-16T03:29:53.943Z,101072.60
2019-04-16T03:32:22.978Z,101067.82
2019-04-16T03:34:53.395Z,101068.09
2019-04-16T03:37:22.960Z,101065.20
2019-04-16T03:39:52.005Z,101065.36
2019-04-16T03:42:21.041Z,101064.66
2019-04-16T03:44:50.166Z,101060.28
2019-04-16T03:47:20.046Z,101059.74
2019-04-16T03:49:49.258Z,101052.70
2019-04-16T03:52:18.329Z,101055.50
2019-04-16T03:54:47.326Z,101044.53
2019-04-16T03:57:16.362Z,101051.08
2019-04-16T03:59:45.518Z,101049.23
2019-04-16T04:02:15.545Z,101046.34
2019-04-16T04:04:45.587Z,101048.27
2019-04-16T04:07:14.594Z,101048.37
2019-04-16T04:09:43.685Z,101054.83
2019-04-16T04:12:14.154Z,101047.96
2019-04-16T04:14:43.655Z,101052.41
2019-04-16T04:17:13.125Z,101046.38
2019-04-16T04:19:45.661Z,101050.96
2019-04-16T04:22:13.341Z,101049.45
2019-04-16T04:24:42.456Z,101044.36
2019-04-16T04:27:14.769Z,101047.52
2019-04-16T04:29:42.563Z,101043.62
2019-04-16T04:32:11.652Z,101042.67
2019-04-16T04:34:40.690Z,101044.70
2019-04-16T04:37:09.745Z,101045.44
2019-04-16T04:39:43.686Z,101046.23
2019-04-16T04:42:09.807Z,101046.01
2019-04-16T04:44:38.895Z,101047.63
2019-04-16T04:47:08.066Z,101049.01
2019-04-16T04:49:37.098Z,101043.69
2019-04-16T04:52:06.152Z,101052.98
2019-04-16T04:54:35.136Z,101045.70
2019-04-16T04:57:04.241Z,101044.06
2019-04-16T04:59:36.531Z,101048.13
2019-04-16T05:02:04.381Z,101046.75
2019-04-16T05:05:00.207Z,101049.84
2019-04-16T05:07:29.418Z,101050.28
2019-04-16T05:09:58.618Z,101062.14
2019-04-16T05:12:27.573Z,101053.79
2019-04-16T05:14:58.509Z,101059.34
2019-04-16T05:17:29.548Z,101055.17
2019-04-16T05:19:58.712Z,101052.88
2019-04-16T05:22:27.747Z,101052.30
2019-04-16T05:25:01.034Z,101057.70
2019-04-16T05:27:29.494Z,101055.16
2019-04-16T05:29:58.881Z,101054.28
2019-04-16T05:32:32.979Z,101059.09
2019-04-16T05:35:00.069Z,101061.17
2019-04-16T05:37:29.278Z,101058.28
2019-04-16T05:39:58.956Z,101064.09
2019-04-16T05:42:28.618Z,101062.64
2019-04-16T05:44:57.708Z,101069.55
2019-04-16T05:47:26.862Z,101066.79
2019-04-16T05:49:57.883Z,101066.70
2019-04-16T05:52:26.855Z,101075.60
2019-04-16T05:55:17.968Z,101074.07
2019-04-16T05:57:46.531Z,101071.64
2019-04-16T06:00:32.319Z,101075.76
2019-04-16T06:03:01.339Z,101077.47
2019-04-16T06:05:30.464Z,101068.69
2019-04-16T06:08:10.315Z,101076.30
2019-04-16T06:10:39.773Z,101070.27
2019-04-16T06:13:41.427Z,101069.90
2019-04-16T06:16:16.432Z,101073.72
2019-04-16T06:19:14.006Z,101074.30
2019-04-16T06:22:01.506Z,101076.31
2019-04-16T06:24:41.006Z,101077.06
2019-04-16T06:27:27.492Z,101073.32
2019-04-16T06:30:34.578Z,101063.52
2019-04-16T06:33:10.448Z,101066.30
2019-04-16T06:36:04.663Z,101066.97
2019-04-16T06:39:00.627Z,101070.98
2019-04-16T06:41:58.240Z,101073.33
2019-04-16T06:44:30.561Z,101073.41
2019-04-16T06:47:24.042Z,101071.65
2019-04-16T06:50:12.243Z,101064.70
2019-04-16T06:53:00.876Z,101068.41
2019-04-16T06:55:36.224Z,101063.13
2019-04-16T06:58:50.329Z,101064.92
2019-04-16T07:01:16.164Z,101069.11
2019-04-16T07:04:00.228Z,101066.31
2019-04-16T07:07:08.053Z,101060.97
2019-04-16T07:09:56.679Z,101050.60
2019-04-16T07:12:27.313Z,101049.55
2019-04-16T07:14:56.458Z,101041.19
2019-04-16T07:17:25.517Z,101044.13
2019-04-16T07:19:54.560Z,101047.81
2019-04-16T07:22:23.683Z,101041.44
2019-04-16T07:24:55.207Z,101048.41
2019-04-16T07:27:27.764Z,101045.81
2019-04-16T07:30:06.834Z,101036.59
2019-04-16T07:32:49.630Z,101038.26
2019-04-16T07:35:36.337Z,101038.99
2019-04-16T07:38:25.123Z,101037.91
2019-04-16T07:41:17.340Z,101033.37
2019-04-16T07:44:04.411Z,101029.32
2019-04-16T07:46:51.186Z,101022.52
2019-04-16T07:49:42.601Z,101027.53
2019-04-16T07:52:38.926Z,101016.34
2019-04-16T07:55:28.166Z,101023.94
2019-04-16T07:57:57.248Z,101009.36
2019-04-16T08:00:26.303Z,101013.02
2019-04-16T08:02:55.486Z,101001.62
2019-04-16T08:05:27.639Z,101005.53
2019-04-16T08:07:55.634Z,100994.47
2019-04-16T08:10:25.984Z,100999.33
2019-04-16T08:13:06.672Z,100997.66
2019-04-16T08:15:35.804Z,101002.23
2019-04-16T08:18:05.901Z,100990.24
2019-04-16T08:20:34.990Z,100986.98
2019-04-16T08:23:23.615Z,100987.73
2019-04-16T08:26:01.994Z,100994.50
2019-04-16T08:28:23.689Z,100988.27
2019-04-16T08:30:52.808Z,100993.08
2019-04-16T08:33:21.890Z,100993.52
2019-04-16T08:35:50.952Z,100986.97
2019-04-16T08:38:19.988Z,100992.56
2019-04-16T08:40:49.120Z,100988.66
2019-04-16T08:43:18.193Z,100993.05
2019-04-16T08:45:47.410Z,100990.21
2019-04-16T08:48:18.629Z,100986.66
2019-04-16T08:50:49.262Z,100984.06
2019-04-16T08:53:18.511Z,100981.94
2019-04-16T08:55:47.590Z,100987.81
2019-04-16T08:58:16.683Z,100984.80
2019-04-16T09:00:48.683Z,100980.66
2019-04-16T09:03:17.774Z,100969.53
2019-04-16T09:05:46.860Z,100976.48
2019-04-16T09:08:23.893Z,100972.25
2019-04-16T09:10:52.986Z,100973.06
2019-04-16T09:13:25.979Z,100982.30
2019-04-16T09:15:55.063Z,100971.73
2019-04-16T09:18:37.159Z,100966.58
2019-04-16T09:21:06.892Z,100962.02
2019-04-16T09:23:42.068Z,100966.40
2019-04-16T09:26:25.406Z,100959.04
2019-04-16T09:29:09.561Z,100968.86
2019-04-16T09:31:56.156Z,100957.94
2019-04-16T09:34:43.901Z,100957.94
2019-04-16T09:37:41.849Z,100955.68
2019-04-16T09:40:29.339Z,100952.50
2019-04-16T09:42:59.373Z,100951.77
2019-04-16T09:45:28.468Z,100953.15
2019-04-16T09:47:57.552Z,100954.77
2019-04-16T09:50:26.624Z,100942.37
2019-04-16T09:52:56.423Z,100963.56
2019-04-16T09:55:25.543Z,100943.89
2019-04-16T09:57:54.629Z,100947.62
2019-04-16T10:00:29.591Z,100957.67
2019-04-16T10:03:06.069Z,100940.53
2019-04-16T10:05:35.092Z,100943.31
2019-04-16T10:08:04.194Z,100939.73
2019-04-16T10:10:33.269Z,100936.89
2019-04-16T10:13:02.348Z,100938.78
2019-04-16T10:15:31.517Z,100930.11
2019-04-16T10:18:01.525Z,100927.16
2019-04-16T10:20:31.602Z,100931.83
2019-04-16T10:23:02.831Z,100929.28
2019-04-16T10:25:33.652Z,100919.06
2019-04-16T10:28:11.035Z,100926.47
2019-04-16T10:30:45.039Z,100918.73
2019-04-16T10:33:14.143Z,100918.85
2019-04-16T10:35:43.191Z,100910.05
2019-04-16T10:38:38.157Z,100907.80
2019-04-16T10:41:11.110Z,100900.52
2019-04-16T10:43:55.950Z,100902.59
2019-04-16T10:46:32.360Z,100897.01
2019-04-16T10:49:33.310Z,100895.41
2019-04-16T10:52:16.887Z,100889.98
2019-04-16T10:55:12.168Z,100891.31
2019-04-16T10:58:00.407Z,100891.45
2019-04-16T11:00:54.359Z,100887.52
2019-04-16T11:03:34.683Z,100894.13
2019-04-16T11:06:09.443Z,100891.98
2019-04-16T11:08:38.618Z,100881.39
2019-04-16T11:11:07.723Z,100871.80
2019-04-16T11:13:42.039Z,100872.86
2019-04-16T11:16:12.891Z,100881.19
2019-04-16T11:18:43.257Z,100877.14
2019-04-16T11:21:12.385Z,100873.73
2019-04-16T11:23:41.449Z,100871.96
2019-04-16T11:26:10.656Z,100869.68
2019-04-16T11:28:39.703Z,100867.80
2019-04-16T11:31:11.958Z,100872.97
2019-04-16T11:33:41.041Z,100856.61
2019-04-16T11:36:18.693Z,100847.06
2019-04-16T11:38:41.066Z,100851.16
2019-04-16T11:41:10.178Z,100863.02
2019-04-16T11:43:39.243Z,100862.47
2019-04-16T11:46:08.376Z,100853.68
2019-04-16T11:48:38.255Z,100852.73
2019-04-16T11:51:07.664Z,100859.05
2019-04-16T11:53:36.848Z,100840.65
2019-04-16T11:56:05.954Z,100849.80
2019-04-16T11:58:47.299Z,100847.28
2019-04-16T12:01:34.766Z,100847.39
2019-04-16T12:04:10.944Z,100844.42
2019-04-16T12:07:00.955Z,100843.20
2019-04-16T12:09:51.247Z,100845.50
2019-04-16T12:12:27.076Z,100838.83
2019-04-16T12:15:21.795Z,100851.47
2019-04-16T12:18:11.572Z,100838.95
2019-04-16T12:20:50.585Z,100853.87
2019-04-16T12:23:39.280Z,100841.14
2019-04-16T12:26:27.922Z,100850.67
2019-04-16T12:29:23.221Z,100836.13
2019-04-16T12:32:17.876Z,100839.70
2019-04-16T12:35:18.512Z,100836.98
2019-04-16T12:38:06.301Z,100839.06
2019-04-16T12:40:42.349Z,100845.50
2019-04-16T12:43:16.251Z,100839.91
2019-04-16T12:45:58.231Z,100845.82
2019-04-16T12:48:38.376Z,100837.68
2019-04-16T12:51:29.737Z,100843.52
2019-04-16T12:54:30.293Z,100850.08
2019-04-16T12:57:17.496Z,100838.28
2019-04-16T13:00:27.313Z,100825.20
2019-04-16T13:03:16.922Z,100836.98
2019-04-16T13:06:07.412Z,100825.20
2019-04-16T13:09:08.243Z,100831.00
2019-04-16T13:12:09.484Z,100821.38
2019-04-16T13:15:00.923Z,100820.25
2019-04-16T13:18:00.466Z,100826.53
2019-04-16T13:20:57.082Z,100824.06
2019-04-16T13:23:36.887Z,100822.64
2019-04-16T13:26:17.490Z,100825.55
2019-04-16T13:29:42.095Z,100817.41
2019-04-16T13:32:11.118Z,100812.16
2019-04-16T13:34:40.250Z,100816.81
2019-04-16T13:37:09.398Z,100809.84
2019-04-16T13:39:59.423Z,100813.58
2019-04-16T13:42:27.629Z,100810.67
2019-04-16T13:45:18.746Z,100810.50
2019-04-16T13:47:54.660Z,100809.80
2019-04-16T13:50:50.030Z,100804.06
2019-04-16T13:53:34.044Z,100801.96
2019-04-16T13:56:24.969Z,100810.31
2019-04-16T13:59:03.269Z,100809.80
2019-04-16T14:01:39.344Z,100806.72
2019-04-16T14:04:07.056Z,100812.34
2019-04-16T14:06:36.106Z,100804.23
2019-04-16T14:09:07.726Z,100800.67
2019-04-16T14:11:36.792Z,100807.00
2019-04-16T14:14:07.649Z,100801.98
2019-04-16T14:16:37.025Z,100803.30
2019-04-16T14:19:06.867Z,100795.93
2019-04-16T14:21:36.373Z,100789.33
2019-04-16T14:24:05.419Z,100791.88
2019-04-16T14:26:34.471Z,100797.13
2019-04-16T14:29:06.767Z,100789.11
2019-04-16T14:31:34.562Z,100791.26
2019-04-16T14:34:32.142Z,100786.61
2019-04-16T14:37:01.389Z,100785.09
2019-04-16T14:39:35.688Z,100794.94
2019-04-16T14:42:04.763Z,100793.20
2019-04-16T14:44:39.203Z,100787.48
2019-04-16T14:47:08.265Z,100782.47
2019-04-16T14:49:37.305Z,100782.16
2019-04-16T14:52:06.441Z,100780.74
2019-04-16T14:54:40.673Z,100782.06
2019-04-16T14:57:11.094Z,100781.34
2019-04-16T15:00:09.135Z,100779.61
2019-04-16T15:02:42.206Z,100779.85
2019-04-16T15:05:49.353Z,100780.91
2019-04-16T15:08:31.468Z,100775.04
2019-04-16T15:11:18.671Z,100779.59
2019-04-16T15:14:07.342Z,100780.34
2019-04-16T15:16:50.835Z,100777.18
2019-04-16T15:19:26.955Z,100777.78
2019-04-16T15:22:15.571Z,100779.68
2019-04-16T15:24:52.750Z,100777.72
2019-04-16T15:27:36.228Z,100776.24
2019-04-16T15:30:28.331Z,100767.72
2019-04-16T15:33:09.002Z,100767.05
2019-04-16T15:35:43.684Z,100770.62
2019-04-16T15:38:23.519Z,100783.64
2019-04-16T15:40:54.642Z,100778.72
2019-04-16T15:43:42.681Z,100790.56
2019-04-16T15:46:34.907Z,100786.13
2019-04-16T15:49:24.160Z,100784.52
2019-04-16T15:52:00.135Z,100787.91
2019-04-16T15:54:46.440Z,100792.03
2019-04-16T15:57:33.917Z,100790.73
2019-04-16T16:00:11.620Z,100790.73
2019-04-16T16:03:03.476Z,100796.91
2019-04-16T16:05:38.099Z,100805.23
2019-04-16T16:08:15.407Z,100799.30
2019-04-16T16:10:51.337Z,100805.53
2019-04-16T16:13:22.841Z,100807.84
2019-04-16T16:15:51.577Z,100791.45
2019-04-16T16:18:21.999Z,100789.14
2019-04-16T16:20:51.084Z,100789.14
2019-04-16T16:23:20.174Z,100792.03
2019-04-16T16:25:49.257Z,100799.70
2019-04-16T16:28:18.414Z,100796.59
2019-04-16T16:30:47.506Z,100796.13
2019-04-16T16:33:16.603Z,100797.38
2019-04-16T16:35:57.490Z,100802.27
2019-04-16T16:38:20.760Z,100803.14
2019-04-16T16:40:50.454Z,100803.11
2019-04-16T16:43:19.864Z,100807.78
2019-04-16T16:46:23.783Z,100807.30
2019-04-16T16:48:54.437Z,100812.37
2019-04-16T16:51:23.658Z,100808.15
2019-04-16T16:53:57.557Z,100809.41
2019-04-16T16:57:02.122Z,100820.96
2019-04-16T16:59:55.672Z,100821.75
2019-04-16T17:02:35.214Z,100821.60
2019-04-16T17:05:05.637Z,100822.25
2019-04-16T17:07:34.698Z,100827.50
2019-04-16T17:10:04.275Z,100828.80
2019-04-16T17:12:33.352Z,100832.23
2019-04-16T17:15:02.411Z,100835.21
2019-04-16T17:17:31.508Z,100830.82
2019-04-16T17:20:00.587Z,100832.76
2019-04-16T17:22:31.450Z,100835.16
2019-04-16T17:25:00.652Z,100836.13
2019-04-16T17:27:29.660Z,100832.78
2019-04-16T17:29:58.742Z,100842.48
2019-04-16T17:32:29.603Z,100849.94
2019-04-16T17:34:58.613Z,100846.06
2019-04-16T17:37:28.855Z,100843.66
2019-04-16T17:40:05.201Z,100854.70
2019-04-16T17:42:38.416Z,100856.25
2019-04-16T17:45:26.050Z,100858.52
2019-04-16T17:48:10.648Z,100861.85
2019-04-16T17:50:51.544Z,100874.08
2019-04-16T17:53:43.140Z,100871.91
2019-04-16T17:56:32.627Z,100879.81
2019-04-16T17:59:04.856Z,100881.85
2019-04-16T18:01:47.484Z,100884.05
2019-04-16T18:04:26.559Z,100881.92
2019-04-16T18:07:17.712Z,100894.03
2019-04-16T18:10:02.084Z,100898.72
2019-04-16T18:12:40.917Z,100896.56
2019-04-16T18:15:17.960Z,100905.84
2019-04-16T18:17:54.974Z,100911.14
2019-04-16T18:20:56.845Z,100924.73
2019-04-16T18:23:34.729Z,100937.48
2019-04-16T18:26:29.774Z,100938.41
2019-04-16T18:29:22.840Z,100951.45
2019-04-16T18:32:14.278Z,100954.77
2019-04-16T18:34:49.642Z,100964.94
2019-04-16T18:37:39.046Z,100965.69
2019-04-16T18:40:24.272Z,100966.08
2019-04-16T18:43:24.960Z,100984.95
2019-04-16T18:46:17.214Z,100988.38
2019-04-16T18:48:47.389Z,100997.70
2019-04-16T18:51:16.416Z,101001.25
2019-04-16T18:53:45.474Z,100998.17
2019-04-16T18:56:14.559Z,100997.09
2019-04-16T18:58:43.691Z,101005.72
2019-04-16T19:01:16.577Z,101015.92
2019-04-16T19:03:45.881Z,101018.23
2019-04-16T19:06:15.128Z,101023.03
2019-04-16T19:08:44.286Z,101030.47
2019-04-16T19:11:13.501Z,101029.59
2019-04-16T19:13:42.643Z,101025.70
2019-04-16T19:16:13.056Z,101036.50
2019-04-16T19:18:42.185Z,101039.27
2019-04-16T19:21:11.460Z,101035.92
2019-04-16T19:23:40.529Z,101045.22
2019-04-16T19:26:09.629Z,101053.41
2019-04-16T19:28:39.654Z,101052.05
2019-04-16T19:31:09.555Z,101062.58
2019-04-16T19:33:38.756Z,101064.51
2019-04-16T19:36:07.895Z,101068.53
2019-04-16T19:38:40.686Z,101071.03
2019-04-16T19:41:10.165Z,101075.05
2019-04-16T19:43:39.655Z,101075.89
2019-04-16T19:46:08.723Z,101078.76
2019-04-16T19:48:38.277Z,101091.37
2019-04-16T19:51:08.922Z,101084.63
2019-04-16T19:53:40.147Z,101090.52
2019-04-16T19:56:09.352Z,101091.88
2019-04-16T19:58:38.464Z,101092.98
2019-04-16T20:01:12.150Z,101095.62
2019-04-16T20:03:43.509Z,101100.66
2019-04-16T20:06:18.500Z,101104.11
2019-04-16T20:08:47.909Z,101101.04
2019-04-16T20:11:21.372Z,101108.83
2019-04-16T20:13:50.873Z,101112.47
2019-04-16T20:16:20.012Z,101114.25
2019-04-16T20:18:51.777Z,101122.88
2019-04-16T20:21:21.101Z,101119.53
2019-04-16T20:23:53.107Z,101125.13
2019-04-16T20:26:24.164Z,101128.85
2019-04-16T20:28:53.247Z,101131.67
2019-04-16T20:31:25.065Z,101137.28
2019-04-16T20:33:56.182Z,101139.84
2019-04-16T20:36:25.288Z,101140.41
2019-04-16T20:38:54.353Z,101136.51
2019-04-16T20:41:23.521Z,101142.11
2019-04-16T20:43:52.828Z,101142.92
2019-04-16T20:46:23.759Z,101140.66
2019-04-16T20:49:06.713Z,101135.61
2019-04-16T20:51:26.581Z,101141.40
2019-04-16T20:53:54.924Z,101133.38
2019-04-16T20:56:23.977Z,101132.73
2019-04-16T20:58:53.128Z,101133.50
2019-04-16T21:01:33.811Z,101132.88
2019-04-16T21:04:03.841Z,101137.56
2019-04-16T21:06:27.273Z,101135.06
2019-04-16T21:08:58.251Z,101140.56
2019-04-16T21:11:27.370Z,101136.88
2019-04-16T21:13:56.478Z,101146.53
2019-04-16T21:16:25.531Z,101142.52
2019-04-16T21:18:54.599Z,101152.81
2019-04-16T21:21:24.350Z,101156.66
2019-04-16T21:23:53.677Z,101163.59
2019-04-16T21:26:22.748Z,101167.42
2019-04-16T21:29:14.338Z,101174.28
2019-04-16T21:31:45.511Z,101181.20
2019-04-16T21:34:40.233Z,101189.25
2019-04-16T21:37:17.040Z,101186.83
2019-04-16T21:39:54.299Z,101187.53
2019-04-16T21:42:23.370Z,101195.16
2019-04-16T21:44:52.461Z,101203.39
2019-04-16T21:47:23.644Z,101201.52
2019-04-16T21:49:52.857Z,101207.15
2019-04-16T21:52:23.233Z,101211.30
2019-04-16T21:54:52.909Z,101211.70
2019-04-16T21:57:21.974Z,101210.36
2019-04-16T21:59:56.791Z,101206.73
2019-04-16T22:02:25.116Z,101210.16
2019-04-16T22:04:56.527Z,101205.18
2019-04-16T22:07:25.868Z,101206.90
2019-04-16T22:09:54.910Z,101211.59
2019-04-16T22:12:23.920Z,101211.55
2019-04-16T22:14:54.471Z,101211.80
2019-04-16T22:17:23.973Z,101220.02
2019-04-16T22:19:54.776Z,101215.43
2019-04-16T22:22:27.336Z,101213.31
2019-04-16T22:24:56.041Z,101213.71
2019-04-16T22:27:25.455Z,101211.58
2019-04-16T22:29:54.577Z,101217.98
2019-04-16T22:32:23.614Z,101220.13
2019-04-16T22:34:52.660Z,101218.77
2019-04-16T22:37:21.760Z,101223.75
2019-04-16T22:40:09.076Z,101223.58
2019-04-16T22:42:46.693Z,101219.40
2019-04-16T22:45:31.165Z,101223.92
2019-04-16T22:48:00.367Z,101224.03
2019-04-16T22:50:29.418Z,101219.96
2019-04-16T22:52:58.470Z,101219.52
2019-04-16T22:55:27.529Z,101219.73
2019-04-16T22:57:56.571Z,101218.46
2019-04-16T23:00:36.804Z,101225.25
2019-04-16T23:03:05.857Z,101227.06
2019-04-16T23:05:34.863Z,101227.89
2019-04-16T23:08:03.876Z,101230.03
2019-04-16T23:10:32.947Z,101229.06
2019-04-16T23:13:02.058Z,101231.23
2019-04-16T23:15:31.998Z,101226.16
2019-04-16T23:18:01.076Z,101227.27
2019-04-16T23:20:33.546Z,101226.50
2019-04-16T23:23:02.447Z,101232.22
2019-04-16T23:25:31.506Z,101227.70
2019-04-16T23:28:00.535Z,101230.98
2019-04-16T23:30:29.628Z,101227.41
2019-04-16T23:33:00.053Z,101228.67
2019-04-16T23:35:29.615Z,101224.44
2019-04-16T23:38:00.893Z,101229.09
2019-04-16T23:40:29.658Z,101225.18
2019-04-16T23:43:18.835Z,101230.28
2019-04-16T23:46:18.438Z,101228.12
2019-04-16T23:48:57.798Z,101224.09
2019-04-16T23:51:33.022Z,101219.55
2019-04-16T23:54:12.889Z,101233.87
2019-04-16T23:56:54.731Z,101232.77
2019-04-16T23:59:32.727Z,101229.70
